sensor_id;sensor_type;location;lat;lon;timestamp;temperature;humidity
10911;DHT22;5508;49.150;11.030;2023-07-29T00:00:47;16.30;99.90
10911;DHT22;5508;49.150;11.030;2023-07-29T00:03:47;16.30;99.90
10911;DHT22;5508;49.150;11.030;2023-07-29T00:06:48;16.20;99.90
10911;DHT22;5508;49.150;11.030;2023-07-29T00:09:48;16.20;99.90
10911;DHT22;5508;49.150;11.030;2023-07-29T00:12:49;16.20;99.90
10911;DHT22;5508;49.150;11.030;2023-07-29T00:15:49;16.20;99.90
10911;DHT22;5508;49.150;11.030;2023-07-29T00:18:50;16.30;99.90
10911;DHT22;5508;49.150;11.030;2023-07-29T00:21:50;16.30;99.90
10911;DHT22;5508;49.150;11.030;2023-07-29T00:24:54;16.20;99.90
10911;DHT22;5508;49.150;11.030;2023-07-29T00:27:56;16.10;99.90
10911;DHT22;5508;49.150;11.030;2023-07-29T00:30:56;16.10;99.90
10911;DHT22;5508;49.150;11.030;2023-07-29T00:33:57;16.00;99.90
10911;DHT22;5508;49.150;11.030;2023-07-29T00:36:58;15.90;99.90
10911;DHT22;5508;49.150;11.030;2023-07-29T00:39:59;15.90;99.90
10911;DHT22;5508;49.150;11.030;2023-07-29T00:42:59;15.90;99.90
10911;DHT22;5508;49.150;11.030;2023-07-29T00:46:00;16.00;99.90
10911;DHT22;5508;49.150;11.030;2023-07-29T00:49:01;15.90;99.90
10911;DHT22;5508;49.150;11.030;2023-07-29T00:52:02;15.90;99.90
10911;DHT22;5508;49.150;11.030;2023-07-29T00:55:03;15.80;99.90
10911;DHT22;5508;49.150;11.030;2023-07-29T00:58:05;15.70;99.90
10911;DHT22;5508;49.150;11.030;2023-07-29T01:01:05;15.60;99.90
10911;DHT22;5508;49.150;11.030;2023-07-29T01:04:06;15.60;99.90
10911;DHT22;5508;49.150;11.030;2023-07-29T01:07:23;15.50;99.90
10911;DHT22;5508;49.150;11.030;2023-07-29T01:13:48;15.50;99.90
10911;DHT22;5508;49.150;11.030;2023-07-29T01:16:53;15.40;99.90
10911;DHT22;5508;49.150;11.030;2023-07-29T01:20:01;15.40;99.90
10911;DHT22;5508;49.150;11.030;2023-07-29T01:23:06;15.50;99.90
10911;DHT22;5508;49.150;11.030;2023-07-29T01:26:06;15.50;99.90
10911;DHT22;5508;49.150;11.030;2023-07-29T01:29:07;15.40;99.90
10911;DHT22;5508;49.150;11.030;2023-07-29T01:32:25;15.50;99.90
10911;DHT22;5508;49.150;11.030;2023-07-29T01:38:35;15.50;99.90
10911;DHT22;5508;49.150;11.030;2023-07-29T01:41:37;15.40;99.90
10911;DHT22;5508;49.150;11.030;2023-07-29T01:44:38;15.40;99.90
10911;DHT22;5508;49.150;11.030;2023-07-29T01:47:38;15.30;99.90
10911;DHT22;5508;49.150;11.030;2023-07-29T01:50:41;15.30;99.90
10911;DHT22;5508;49.150;11.030;2023-07-29T01:53:42;15.30;99.90
10911;DHT22;5508;49.150;11.030;2023-07-29T01:56:42;15.20;99.90
10911;DHT22;5508;49.150;11.030;2023-07-29T01:59:43;15.30;99.90
10911;DHT22;5508;49.150;11.030;2023-07-29T02:02:44;15.20;99.90
10911;DHT22;5508;49.150;11.030;2023-07-29T02:05:44;15.10;99.90
10911;DHT22;5508;49.150;11.030;2023-07-29T02:08:45;15.10;99.90
10911;DHT22;5508;49.150;11.030;2023-07-29T02:11:45;15.10;99.90
10911;DHT22;5508;49.150;11.030;2023-07-29T02:14:46;15.00;99.90
10911;DHT22;5508;49.150;11.030;2023-07-29T02:17:47;14.90;99.90
10911;DHT22;5508;49.150;11.030;2023-07-29T02:20:47;14.90;99.90
10911;DHT22;5508;49.150;11.030;2023-07-29T02:23:49;14.80;99.90
10911;DHT22;5508;49.150;11.030;2023-07-29T02:26:50;14.70;99.90
10911;DHT22;5508;49.150;11.030;2023-07-29T02:29:50;14.70;99.90
10911;DHT22;5508;49.150;11.030;2023-07-29T02:32:51;14.70;99.90
10911;DHT22;5508;49.150;11.030;2023-07-29T02:35:52;14.50;99.90
10911;DHT22;5508;49.150;11.030;2023-07-29T02:38:52;14.50;99.90
10911;DHT22;5508;49.150;11.030;2023-07-29T02:41:53;14.60;99.90
10911;DHT22;5508;49.150;11.030;2023-07-29T02:44:55;14.60;99.90
10911;DHT22;5508;49.150;11.030;2023-07-29T02:47:56;14.50;99.90
10911;DHT22;5508;49.150;11.030;2023-07-29T02:50:57;14.60;99.90
10911;DHT22;5508;49.150;11.030;2023-07-29T02:53:57;14.60;99.90
10911;DHT22;5508;49.150;11.030;2023-07-29T02:56:58;14.70;99.90
10911;DHT22;5508;49.150;11.030;2023-07-29T02:59:58;14.70;99.90
10911;DHT22;5508;49.150;11.030;2023-07-29T03:02:59;14.80;99.90
10911;DHT22;5508;49.150;11.030;2023-07-29T03:06:08;14.80;99.90
10911;DHT22;5508;49.150;11.030;2023-07-29T03:09:09;14.90;99.90
10911;DHT22;5508;49.150;11.030;2023-07-29T03:12:10;14.90;99.90
10911;DHT22;5508;49.150;11.030;2023-07-29T03:15:11;14.90;99.90
10911;DHT22;5508;49.150;11.030;2023-07-29T03:18:12;15.00;99.90
10911;DHT22;5508;49.150;11.030;2023-07-29T03:21:12;15.00;99.90
10911;DHT22;5508;49.150;11.030;2023-07-29T03:24:13;15.10;99.90
10911;DHT22;5508;49.150;11.030;2023-07-29T03:27:14;15.10;99.90
10911;DHT22;5508;49.150;11.030;2023-07-29T03:30:19;15.10;99.90
10911;DHT22;5508;49.150;11.030;2023-07-29T03:33:20;15.10;99.90
10911;DHT22;5508;49.150;11.030;2023-07-29T03:36:21;15.10;99.90
10911;DHT22;5508;49.150;11.030;2023-07-29T03:39:22;15.10;99.90
10911;DHT22;5508;49.150;11.030;2023-07-29T03:42:22;15.10;99.90
10911;DHT22;5508;49.150;11.030;2023-07-29T03:45:23;15.10;99.90
10911;DHT22;5508;49.150;11.030;2023-07-29T03:48:24;15.20;99.90
10911;DHT22;5508;49.150;11.030;2023-07-29T03:51:24;15.20;99.90
10911;DHT22;5508;49.150;11.030;2023-07-29T03:54:25;15.20;99.90
10911;DHT22;5508;49.150;11.030;2023-07-29T03:57:25;15.20;99.90
10911;DHT22;5508;49.150;11.030;2023-07-29T04:00:27;15.20;99.90
10911;DHT22;5508;49.150;11.030;2023-07-29T04:03:27;15.30;99.90
10911;DHT22;5508;49.150;11.030;2023-07-29T04:06:28;15.30;99.90
10911;DHT22;5508;49.150;11.030;2023-07-29T04:09:29;15.30;99.90
10911;DHT22;5508;49.150;11.030;2023-07-29T04:12:30;15.30;99.90
10911;DHT22;5508;49.150;11.030;2023-07-29T04:15:30;15.30;99.90
10911;DHT22;5508;49.150;11.030;2023-07-29T04:18:31;15.30;99.90
10911;DHT22;5508;49.150;11.030;2023-07-29T04:21:32;15.40;99.90
10911;DHT22;5508;49.150;11.030;2023-07-29T04:24:32;15.40;99.90
10911;DHT22;5508;49.150;11.030;2023-07-29T04:27:33;15.40;99.90
10911;DHT22;5508;49.150;11.030;2023-07-29T04:30:34;15.50;99.90
10911;DHT22;5508;49.150;11.030;2023-07-29T04:33:34;15.60;99.90
10911;DHT22;5508;49.150;11.030;2023-07-29T04:36:35;15.70;99.90
10911;DHT22;5508;49.150;11.030;2023-07-29T04:39:35;15.80;99.90
10911;DHT22;5508;49.150;11.030;2023-07-29T04:42:36;15.90;99.90
10911;DHT22;5508;49.150;11.030;2023-07-29T04:45:42;16.00;99.90
10911;DHT22;5508;49.150;11.030;2023-07-29T04:48:43;16.00;99.90
10911;DHT22;5508;49.150;11.030;2023-07-29T04:51:44;16.20;99.90
10911;DHT22;5508;49.150;11.030;2023-07-29T04:54:44;16.30;99.90
10911;DHT22;5508;49.150;11.030;2023-07-29T04:57:45;16.40;99.90
10911;DHT22;5508;49.150;11.030;2023-07-29T05:00:49;16.50;99.90
10911;DHT22;5508;49.150;11.030;2023-07-29T05:03:49;16.60;99.90
10911;DHT22;5508;49.150;11.030;2023-07-29T05:06:50;16.70;99.90
10911;DHT22;5508;49.150;11.030;2023-07-29T05:09:51;16.90;99.90
10911;DHT22;5508;49.150;11.030;2023-07-29T05:12:51;17.00;99.90
10911;DHT22;5508;49.150;11.030;2023-07-29T05:15:52;17.00;99.90
10911;DHT22;5508;49.150;11.030;2023-07-29T05:18:52;17.00;99.90
10911;DHT22;5508;49.150;11.030;2023-07-29T05:21:53;16.90;99.90
10911;DHT22;5508;49.150;11.030;2023-07-29T05:24:53;16.90;99.90
10911;DHT22;5508;49.150;11.030;2023-07-29T05:27:54;16.90;99.90
10911;DHT22;5508;49.150;11.030;2023-07-29T05:30:55;16.90;99.90
10911;DHT22;5508;49.150;11.030;2023-07-29T05:33:55;16.80;99.90
10911;DHT22;5508;49.150;11.030;2023-07-29T05:36:56;16.80;99.90
10911;DHT22;5508;49.150;11.030;2023-07-29T05:39:56;16.80;99.90
10911;DHT22;5508;49.150;11.030;2023-07-29T05:42:57;16.80;99.90
10911;DHT22;5508;49.150;11.030;2023-07-29T05:45:58;16.80;99.90
10911;DHT22;5508;49.150;11.030;2023-07-29T05:48:58;16.90;99.90
10911;DHT22;5508;49.150;11.030;2023-07-29T05:51:59;16.90;99.90
10911;DHT22;5508;49.150;11.030;2023-07-29T05:55:00;16.90;99.90
10911;DHT22;5508;49.150;11.030;2023-07-29T05:58:00;16.90;99.90
10911;DHT22;5508;49.150;11.030;2023-07-29T06:01:01;16.90;99.90
10911;DHT22;5508;49.150;11.030;2023-07-29T06:04:02;16.90;99.90
10911;DHT22;5508;49.150;11.030;2023-07-29T06:07:02;16.90;99.90
10911;DHT22;5508;49.150;11.030;2023-07-29T06:10:03;16.90;99.90
10911;DHT22;5508;49.150;11.030;2023-07-29T06:13:04;16.90;99.90
10911;DHT22;5508;49.150;11.030;2023-07-29T06:16:04;17.00;99.90
10911;DHT22;5508;49.150;11.030;2023-07-29T06:19:05;17.00;99.90
10911;DHT22;5508;49.150;11.030;2023-07-29T06:22:06;16.90;99.90
10911;DHT22;5508;49.150;11.030;2023-07-29T06:25:07;16.90;99.90
10911;DHT22;5508;49.150;11.030;2023-07-29T06:28:09;16.90;99.90
10911;DHT22;5508;49.150;11.030;2023-07-29T06:31:09;16.90;99.90
10911;DHT22;5508;49.150;11.030;2023-07-29T06:34:10;16.90;99.90
10911;DHT22;5508;49.150;11.030;2023-07-29T06:37:11;16.90;99.90
10911;DHT22;5508;49.150;11.030;2023-07-29T06:40:11;17.00;99.90
10911;DHT22;5508;49.150;11.030;2023-07-29T06:43:12;17.10;99.90
10911;DHT22;5508;49.150;11.030;2023-07-29T06:46:13;17.10;99.90
10911;DHT22;5508;49.150;11.030;2023-07-29T06:49:13;17.30;99.90
10911;DHT22;5508;49.150;11.030;2023-07-29T06:52:14;17.20;99.90
10911;DHT22;5508;49.150;11.030;2023-07-29T06:55:14;17.20;99.90
10911;DHT22;5508;49.150;11.030;2023-07-29T06:58:15;17.20;99.90
10911;DHT22;5508;49.150;11.030;2023-07-29T07:01:16;17.20;99.90
10911;DHT22;5508;49.150;11.030;2023-07-29T07:04:16;17.10;99.90
10911;DHT22;5508;49.150;11.030;2023-07-29T07:07:17;17.10;99.90
10911;DHT22;5508;49.150;11.030;2023-07-29T07:10:18;17.20;99.90
10911;DHT22;5508;49.150;11.030;2023-07-29T07:13:19;17.40;99.90
10911;DHT22;5508;49.150;11.030;2023-07-29T07:16:19;17.60;99.90
10911;DHT22;5508;49.150;11.030;2023-07-29T07:19:20;17.60;99.90
10911;DHT22;5508;49.150;11.030;2023-07-29T07:22:20;17.70;99.90
10911;DHT22;5508;49.150;11.030;2023-07-29T07:25:21;17.70;99.90
10911;DHT22;5508;49.150;11.030;2023-07-29T07:28:21;17.70;99.90
10911;DHT22;5508;49.150;11.030;2023-07-29T07:31:22;17.80;99.90
10911;DHT22;5508;49.150;11.030;2023-07-29T07:34:23;18.00;99.90
10911;DHT22;5508;49.150;11.030;2023-07-29T07:37:23;18.20;99.90
10911;DHT22;5508;49.150;11.030;2023-07-29T07:40:24;18.60;99.90
10911;DHT22;5508;49.150;11.030;2023-07-29T07:43:24;18.50;99.90
10911;DHT22;5508;49.150;11.030;2023-07-29T07:46:25;18.60;99.90
10911;DHT22;5508;49.150;11.030;2023-07-29T07:49:26;18.70;99.90
10911;DHT22;5508;49.150;11.030;2023-07-29T07:52:27;18.60;99.90
10911;DHT22;5508;49.150;11.030;2023-07-29T07:55:28;18.50;99.90
10911;DHT22;5508;49.150;11.030;2023-07-29T07:58:28;18.40;99.90
10911;DHT22;5508;49.150;11.030;2023-07-29T08:01:35;18.30;99.90
10911;DHT22;5508;49.150;11.030;2023-07-29T08:04:36;18.40;99.90
10911;DHT22;5508;49.150;11.030;2023-07-29T08:07:37;18.40;99.90
10911;DHT22;5508;49.150;11.030;2023-07-29T08:10:37;18.40;99.90
10911;DHT22;5508;49.150;11.030;2023-07-29T08:13:38;18.50;99.90
10911;DHT22;5508;49.150;11.030;2023-07-29T08:16:38;18.60;99.90
10911;DHT22;5508;49.150;11.030;2023-07-29T08:19:39;18.90;99.90
10911;DHT22;5508;49.150;11.030;2023-07-29T08:22:39;18.90;99.90
10911;DHT22;5508;49.150;11.030;2023-07-29T08:25:40;19.00;99.90
10911;DHT22;5508;49.150;11.030;2023-07-29T08:28:40;19.20;99.90
10911;DHT22;5508;49.150;11.030;2023-07-29T08:31:41;19.20;99.90
10911;DHT22;5508;49.150;11.030;2023-07-29T08:34:42;19.30;99.90
10911;DHT22;5508;49.150;11.030;2023-07-29T08:37:42;19.30;99.90
10911;DHT22;5508;49.150;11.030;2023-07-29T08:44:26;19.20;99.90
10911;DHT22;5508;49.150;11.030;2023-07-29T08:47:27;19.30;99.90
10911;DHT22;5508;49.150;11.030;2023-07-29T08:50:28;19.20;99.90
10911;DHT22;5508;49.150;11.030;2023-07-29T08:53:31;19.00;99.90
10911;DHT22;5508;49.150;11.030;2023-07-29T08:56:32;19.10;99.90
10911;DHT22;5508;49.150;11.030;2023-07-29T08:59:33;18.90;99.90
10911;DHT22;5508;49.150;11.030;2023-07-29T09:02:33;18.50;99.90
10911;DHT22;5508;49.150;11.030;2023-07-29T09:05:34;18.40;99.90
10911;DHT22;5508;49.150;11.030;2023-07-29T09:08:35;18.30;99.90
10911;DHT22;5508;49.150;11.030;2023-07-29T09:11:36;18.20;99.90
10911;DHT22;5508;49.150;11.030;2023-07-29T09:14:36;18.20;99.90
10911;DHT22;5508;49.150;11.030;2023-07-29T09:17:37;18.10;99.90
10911;DHT22;5508;49.150;11.030;2023-07-29T09:20:38;18.00;99.90
10911;DHT22;5508;49.150;11.030;2023-07-29T09:23:40;18.00;99.90
10911;DHT22;5508;49.150;11.030;2023-07-29T09:26:49;17.80;99.90
10911;DHT22;5508;49.150;11.030;2023-07-29T09:29:49;17.80;99.90
10911;DHT22;5508;49.150;11.030;2023-07-29T09:32:57;17.70;99.90
10911;DHT22;5508;49.150;11.030;2023-07-29T09:35:58;17.70;99.90
10911;DHT22;5508;49.150;11.030;2023-07-29T09:38:59;17.70;99.90
10911;DHT22;5508;49.150;11.030;2023-07-29T09:41:59;17.80;99.90
10911;DHT22;5508;49.150;11.030;2023-07-29T09:45:00;17.90;99.90
10911;DHT22;5508;49.150;11.030;2023-07-29T09:48:02;18.10;99.90
10911;DHT22;5508;49.150;11.030;2023-07-29T09:51:11;18.20;99.90
10911;DHT22;5508;49.150;11.030;2023-07-29T09:54:12;18.20;99.90
10911;DHT22;5508;49.150;11.030;2023-07-29T09:57:14;18.40;99.90
10911;DHT22;5508;49.150;11.030;2023-07-29T10:00:16;18.50;99.90
10911;DHT22;5508;49.150;11.030;2023-07-29T10:03:18;18.70;99.90
10911;DHT22;5508;49.150;11.030;2023-07-29T10:06:19;19.00;99.90
10911;DHT22;5508;49.150;11.030;2023-07-29T10:09:20;19.30;99.90
10911;DHT22;5508;49.150;11.030;2023-07-29T10:12:21;19.60;99.90
10911;DHT22;5508;49.150;11.030;2023-07-29T10:15:23;19.80;99.90
10911;DHT22;5508;49.150;11.030;2023-07-29T10:18:24;20.30;99.90
10911;DHT22;5508;49.150;11.030;2023-07-29T10:21:25;20.60;99.90
10911;DHT22;5508;49.150;11.030;2023-07-29T10:24:30;20.60;99.90
10911;DHT22;5508;49.150;11.030;2023-07-29T10:27:42;20.70;99.90
10911;DHT22;5508;49.150;11.030;2023-07-29T10:30:43;20.40;99.90
10911;DHT22;5508;49.150;11.030;2023-07-29T10:33:44;20.80;99.90
10911;DHT22;5508;49.150;11.030;2023-07-29T10:36:45;21.00;99.90
10911;DHT22;5508;49.150;11.030;2023-07-29T10:39:56;21.60;99.90
10911;DHT22;5508;49.150;11.030;2023-07-29T10:43:02;21.60;99.90
10911;DHT22;5508;49.150;11.030;2023-07-29T10:46:23;21.50;99.70
10911;DHT22;5508;49.150;11.030;2023-07-29T10:49:23;21.50;98.60
10911;DHT22;5508;49.150;11.030;2023-07-29T10:55:36;22.00;98.40
10911;DHT22;5508;49.150;11.030;2023-07-29T10:58:37;22.30;96.90
10911;DHT22;5508;49.150;11.030;2023-07-29T11:01:42;22.70;97.50
10911;DHT22;5508;49.150;11.030;2023-07-29T11:04:49;22.90;92.50
10911;DHT22;5508;49.150;11.030;2023-07-29T11:07:50;22.60;89.30
10911;DHT22;5508;49.150;11.030;2023-07-29T11:14:00;22.70;88.60
10911;DHT22;5508;49.150;11.030;2023-07-29T11:17:02;22.60;90.00
10911;DHT22;5508;49.150;11.030;2023-07-29T11:20:05;22.60;86.30
10911;DHT22;5508;49.150;11.030;2023-07-29T11:23:06;22.50;86.00
10911;DHT22;5508;49.150;11.030;2023-07-29T11:26:07;22.60;88.30
10911;DHT22;5508;49.150;11.030;2023-07-29T11:29:09;22.60;87.80
10911;DHT22;5508;49.150;11.030;2023-07-29T11:32:10;22.80;87.70
10911;DHT22;5508;49.150;11.030;2023-07-29T11:35:13;22.70;85.90
10911;DHT22;5508;49.150;11.030;2023-07-29T11:38:16;22.40;86.60
10911;DHT22;5508;49.150;11.030;2023-07-29T11:41:19;22.00;86.30
10911;DHT22;5508;49.150;11.030;2023-07-29T11:44:21;21.70;89.90
10911;DHT22;5508;49.150;11.030;2023-07-29T11:47:22;21.80;88.20
10911;DHT22;5508;49.150;11.030;2023-07-29T11:50:22;21.60;88.70
10911;DHT22;5508;49.150;11.030;2023-07-29T11:53:27;21.40;89.20
10911;DHT22;5508;49.150;11.030;2023-07-29T11:56:29;21.40;90.80
10911;DHT22;5508;49.150;11.030;2023-07-29T11:59:30;21.40;93.50
10911;DHT22;5508;49.150;11.030;2023-07-29T12:02:33;21.20;96.20
10911;DHT22;5508;49.150;11.030;2023-07-29T12:05:36;21.00;96.50
10911;DHT22;5508;49.150;11.030;2023-07-29T12:08:37;20.80;98.40
10911;DHT22;5508;49.150;11.030;2023-07-29T12:11:37;20.80;99.90
10911;DHT22;5508;49.150;11.030;2023-07-29T12:14:38;20.90;99.90
10911;DHT22;5508;49.150;11.030;2023-07-29T12:17:42;21.20;99.90
10911;DHT22;5508;49.150;11.030;2023-07-29T12:20:43;21.30;99.90
10911;DHT22;5508;49.150;11.030;2023-07-29T12:23:44;21.40;99.90
10911;DHT22;5508;49.150;11.030;2023-07-29T12:26:44;21.50;99.90
10911;DHT22;5508;49.150;11.030;2023-07-29T12:29:47;21.40;99.90
10911;DHT22;5508;49.150;11.030;2023-07-29T12:32:49;21.20;99.90
10911;DHT22;5508;49.150;11.030;2023-07-29T12:35:50;21.40;99.90
10911;DHT22;5508;49.150;11.030;2023-07-29T12:38:51;21.50;99.90
10911;DHT22;5508;49.150;11.030;2023-07-29T12:41:56;21.60;99.90
10911;DHT22;5508;49.150;11.030;2023-07-29T12:44:56;21.70;99.90
10911;DHT22;5508;49.150;11.030;2023-07-29T12:47:57;21.90;97.20
10911;DHT22;5508;49.150;11.030;2023-07-29T12:50:58;21.80;93.30
10911;DHT22;5508;49.150;11.030;2023-07-29T12:53:58;21.80;94.30
10911;DHT22;5508;49.150;11.030;2023-07-29T12:56:59;21.80;93.10
10911;DHT22;5508;49.150;11.030;2023-07-29T12:59:59;21.90;91.70
10911;DHT22;5508;49.150;11.030;2023-07-29T13:03:00;21.90;89.00
10911;DHT22;5508;49.150;11.030;2023-07-29T13:06:00;22.00;87.60
10911;DHT22;5508;49.150;11.030;2023-07-29T13:09:01;21.90;87.10
10911;DHT22;5508;49.150;11.030;2023-07-29T13:12:02;21.80;84.60
10911;DHT22;5508;49.150;11.030;2023-07-29T13:15:03;21.80;85.10
10911;DHT22;5508;49.150;11.030;2023-07-29T13:18:03;21.50;84.60
10911;DHT22;5508;49.150;11.030;2023-07-29T13:21:04;21.70;84.40
10911;DHT22;5508;49.150;11.030;2023-07-29T13:24:05;21.80;84.20
10911;DHT22;5508;49.150;11.030;2023-07-29T13:27:05;22.00;82.80
10911;DHT22;5508;49.150;11.030;2023-07-29T13:30:07;21.90;80.70
10911;DHT22;5508;49.150;11.030;2023-07-29T13:33:08;21.80;80.70
10911;DHT22;5508;49.150;11.030;2023-07-29T13:36:09;21.80;80.00
10911;DHT22;5508;49.150;11.030;2023-07-29T13:39:09;21.80;79.70
10911;DHT22;5508;49.150;11.030;2023-07-29T13:42:10;22.00;81.40
10911;DHT22;5508;49.150;11.030;2023-07-29T13:45:10;22.20;78.30
10911;DHT22;5508;49.150;11.030;2023-07-29T13:48:11;22.50;76.40
10911;DHT22;5508;49.150;11.030;2023-07-29T13:51:12;22.80;77.10
10911;DHT22;5508;49.150;11.030;2023-07-29T13:54:12;23.00;75.50
10911;DHT22;5508;49.150;11.030;2023-07-29T13:57:13;23.10;75.50
10911;DHT22;5508;49.150;11.030;2023-07-29T14:00:14;23.30;75.30
10911;DHT22;5508;49.150;11.030;2023-07-29T14:03:14;23.30;72.70
10911;DHT22;5508;49.150;11.030;2023-07-29T14:06:15;23.30;71.70
10911;DHT22;5508;49.150;11.030;2023-07-29T14:09:16;23.30;75.80
10911;DHT22;5508;49.150;11.030;2023-07-29T14:12:17;23.00;73.80
10911;DHT22;5508;49.150;11.030;2023-07-29T14:15:17;23.10;74.80
10911;DHT22;5508;49.150;11.030;2023-07-29T14:18:18;23.20;73.00
10911;DHT22;5508;49.150;11.030;2023-07-29T14:21:20;23.30;72.20
10911;DHT22;5508;49.150;11.030;2023-07-29T14:24:20;23.50;73.20
10911;DHT22;5508;49.150;11.030;2023-07-29T14:27:23;23.70;70.30
10911;DHT22;5508;49.150;11.030;2023-07-29T14:30:23;23.80;66.60
10911;DHT22;5508;49.150;11.030;2023-07-29T14:33:24;23.80;66.90
10911;DHT22;5508;49.150;11.030;2023-07-29T14:36:25;23.50;67.90
10911;DHT22;5508;49.150;11.030;2023-07-29T14:39:26;23.60;68.00
10911;DHT22;5508;49.150;11.030;2023-07-29T14:42:27;23.70;67.00
10911;DHT22;5508;49.150;11.030;2023-07-29T14:45:27;23.60;67.50
10911;DHT22;5508;49.150;11.030;2023-07-29T14:48:29;23.60;67.60
10911;DHT22;5508;49.150;11.030;2023-07-29T14:51:29;23.60;65.40
10911;DHT22;5508;49.150;11.030;2023-07-29T14:54:30;23.50;61.50
10911;DHT22;5508;49.150;11.030;2023-07-29T14:57:31;23.50;62.70
10911;DHT22;5508;49.150;11.030;2023-07-29T15:00:32;23.50;61.50
10911;DHT22;5508;49.150;11.030;2023-07-29T15:03:33;23.80;64.30
10911;DHT22;5508;49.150;11.030;2023-07-29T15:06:34;23.70;61.80
10911;DHT22;5508;49.150;11.030;2023-07-29T15:09:34;24.00;62.60
10911;DHT22;5508;49.150;11.030;2023-07-29T15:12:35;24.00;63.00
10911;DHT22;5508;49.150;11.030;2023-07-29T15:15:36;23.60;62.70
10911;DHT22;5508;49.150;11.030;2023-07-29T15:18:36;23.40;63.00
10911;DHT22;5508;49.150;11.030;2023-07-29T15:21:37;23.20;64.10
10911;DHT22;5508;49.150;11.030;2023-07-29T15:24:38;23.20;66.10
10911;DHT22;5508;49.150;11.030;2023-07-29T15:27:40;23.40;65.90
10911;DHT22;5508;49.150;11.030;2023-07-29T15:30:41;23.60;65.10
10911;DHT22;5508;49.150;11.030;2023-07-29T15:33:41;23.50;63.50
10911;DHT22;5508;49.150;11.030;2023-07-29T15:36:42;23.20;65.00
10911;DHT22;5508;49.150;11.030;2023-07-29T15:39:42;23.20;64.00
10911;DHT22;5508;49.150;11.030;2023-07-29T15:42:43;22.90;64.00
10911;DHT22;5508;49.150;11.030;2023-07-29T15:45:44;22.90;64.90
10911;DHT22;5508;49.150;11.030;2023-07-29T15:48:45;22.80;64.10
10911;DHT22;5508;49.150;11.030;2023-07-29T15:51:45;22.90;64.80
10911;DHT22;5508;49.150;11.030;2023-07-29T15:54:46;23.00;63.90
10911;DHT22;5508;49.150;11.030;2023-07-29T15:57:47;22.90;64.70
10911;DHT22;5508;49.150;11.030;2023-07-29T16:00:47;22.80;64.60
10911;DHT22;5508;49.150;11.030;2023-07-29T16:03:48;22.70;65.90
10911;DHT22;5508;49.150;11.030;2023-07-29T16:06:49;22.70;64.30
10911;DHT22;5508;49.150;11.030;2023-07-29T16:09:49;22.80;64.80
10911;DHT22;5508;49.150;11.030;2023-07-29T16:12:50;23.00;66.70
10911;DHT22;5508;49.150;11.030;2023-07-29T16:15:50;23.00;64.00
10911;DHT22;5508;49.150;11.030;2023-07-29T16:18:51;22.90;63.80
10911;DHT22;5508;49.150;11.030;2023-07-29T16:21:52;22.80;63.60
10911;DHT22;5508;49.150;11.030;2023-07-29T16:24:53;22.70;64.00
10911;DHT22;5508;49.150;11.030;2023-07-29T16:27:53;22.70;66.40
10911;DHT22;5508;49.150;11.030;2023-07-29T16:30:56;22.60;65.80
10911;DHT22;5508;49.150;11.030;2023-07-29T16:33:57;22.60;65.90
10911;DHT22;5508;49.150;11.030;2023-07-29T16:36:57;22.60;65.80
10911;DHT22;5508;49.150;11.030;2023-07-29T16:39:58;22.60;65.60
10911;DHT22;5508;49.150;11.030;2023-07-29T16:42:59;22.60;65.60
10911;DHT22;5508;49.150;11.030;2023-07-29T16:46:00;22.60;64.60
10911;DHT22;5508;49.150;11.030;2023-07-29T16:49:01;22.50;65.40
10911;DHT22;5508;49.150;11.030;2023-07-29T16:52:01;22.50;65.60
10911;DHT22;5508;49.150;11.030;2023-07-29T16:55:02;22.40;65.20
10911;DHT22;5508;49.150;11.030;2023-07-29T16:58:02;22.50;65.30
10911;DHT22;5508;49.150;11.030;2023-07-29T17:01:03;22.50;66.90
10911;DHT22;5508;49.150;11.030;2023-07-29T17:04:04;22.60;65.40
10911;DHT22;5508;49.150;11.030;2023-07-29T17:07:04;22.60;65.40
10911;DHT22;5508;49.150;11.030;2023-07-29T17:10:05;22.70;66.10
10911;DHT22;5508;49.150;11.030;2023-07-29T17:13:06;22.70;66.40
10911;DHT22;5508;49.150;11.030;2023-07-29T17:16:06;22.80;67.60
10911;DHT22;5508;49.150;11.030;2023-07-29T17:19:08;22.70;66.70
10911;DHT22;5508;49.150;11.030;2023-07-29T17:22:09;22.80;65.30
10911;DHT22;5508;49.150;11.030;2023-07-29T17:25:10;22.80;65.60
10911;DHT22;5508;49.150;11.030;2023-07-29T17:28:11;22.70;66.00
10911;DHT22;5508;49.150;11.030;2023-07-29T17:31:12;22.70;64.10
10911;DHT22;5508;49.150;11.030;2023-07-29T17:34:12;22.60;65.90
10911;DHT22;5508;49.150;11.030;2023-07-29T17:37:13;22.50;65.40
10911;DHT22;5508;49.150;11.030;2023-07-29T17:40:14;22.50;65.90
10911;DHT22;5508;49.150;11.030;2023-07-29T17:43:14;22.40;67.00
10911;DHT22;5508;49.150;11.030;2023-07-29T17:46:15;22.40;65.80
10911;DHT22;5508;49.150;11.030;2023-07-29T17:49:18;22.30;66.40
10911;DHT22;5508;49.150;11.030;2023-07-29T17:52:19;22.20;67.30
10911;DHT22;5508;49.150;11.030;2023-07-29T17:55:19;22.10;65.90
10911;DHT22;5508;49.150;11.030;2023-07-29T17:58:20;22.00;67.00
10911;DHT22;5508;49.150;11.030;2023-07-29T18:01:20;21.90;67.10
10911;DHT22;5508;49.150;11.030;2023-07-29T18:04:21;21.90;67.60
10911;DHT22;5508;49.150;11.030;2023-07-29T18:07:21;21.80;67.10
10911;DHT22;5508;49.150;11.030;2023-07-29T18:10:22;21.70;69.20
10911;DHT22;5508;49.150;11.030;2023-07-29T18:13:24;21.60;68.70
10911;DHT22;5508;49.150;11.030;2023-07-29T18:16:25;21.50;68.90
10911;DHT22;5508;49.150;11.030;2023-07-29T18:19:25;21.40;69.90
10911;DHT22;5508;49.150;11.030;2023-07-29T18:22:30;21.30;70.30
10911;DHT22;5508;49.150;11.030;2023-07-29T18:25:31;21.20;71.20
10911;DHT22;5508;49.150;11.030;2023-07-29T18:28:32;21.10;71.40
10911;DHT22;5508;49.150;11.030;2023-07-29T18:31:33;21.00;73.00
10911;DHT22;5508;49.150;11.030;2023-07-29T18:34:33;20.80;75.60
10911;DHT22;5508;49.150;11.030;2023-07-29T18:37:35;20.70;74.60
10911;DHT22;5508;49.150;11.030;2023-07-29T18:40:36;20.60;75.70
10911;DHT22;5508;49.150;11.030;2023-07-29T18:43:36;20.50;76.70
10911;DHT22;5508;49.150;11.030;2023-07-29T18:46:37;20.40;78.40
10911;DHT22;5508;49.150;11.030;2023-07-29T18:49:37;20.30;80.80
10911;DHT22;5508;49.150;11.030;2023-07-29T18:52:38;20.20;82.50
10911;DHT22;5508;49.150;11.030;2023-07-29T18:55:39;20.00;82.30
10911;DHT22;5508;49.150;11.030;2023-07-29T18:58:40;19.90;83.40
10911;DHT22;5508;49.150;11.030;2023-07-29T19:01:40;19.80;84.20
10911;DHT22;5508;49.150;11.030;2023-07-29T19:04:41;19.70;85.40
10911;DHT22;5508;49.150;11.030;2023-07-29T19:07:47;19.60;85.70
10911;DHT22;5508;49.150;11.030;2023-07-29T19:10:48;19.60;86.30
10911;DHT22;5508;49.150;11.030;2023-07-29T19:13:49;19.60;86.00
10911;DHT22;5508;49.150;11.030;2023-07-29T19:16:50;19.50;87.00
10911;DHT22;5508;49.150;11.030;2023-07-29T19:19:50;19.50;88.20